createdAt,value
2023-01-13T00:00:01.114Z,100543.53
2023-01-13T00:02:27.917Z,100545.41
2023-01-13T00:04:54.669Z,100542.34
2023-01-13T00:07:21.465Z,100538.72
2023-01-13T00:09:48.067Z,100546.25
2023-01-13T00:12:14.933Z,100526.84
2023-01-13T00:14:41.668Z,100537.44
2023-01-13T00:17:08.234Z,100533.81
2023-01-13T00:19:34.833Z,100530.72
2023-01-13T00:22:01.524Z,100534.28
2023-01-13T00:24:28.148Z,100532.03
2023-01-13T00:26:54.741Z,100527.81
2023-01-13T00:29:21.461Z,100523.34
2023-01-13T00:31:49.407Z,100523.19
2023-01-13T00:34:16.192Z,100519.44
2023-01-13T00:36:42.805Z,100515.09
2023-01-13T00:39:09.526Z,100525.34
2023-01-13T00:41:36.184Z,100526.22
2023-01-13T00:44:02.978Z,100523.59
2023-01-13T00:46:29.565Z,100520.22
2023-01-13T00:48:56.280Z,100526.06
2023-01-13T00:51:22.908Z,100526.22
2023-01-13T00:53:51.612Z,100529.63
2023-01-13T00:56:34.177Z,100533.91
2023-01-13T00:59:05.986Z,100530.56
2023-01-13T01:01:33.215Z,100528.97
2023-01-13T01:03:59.919Z,100527.47
2023-01-13T01:06:27.508Z,100526.56
2023-01-13T01:08:55.493Z,100529.72
2023-01-13T01:11:25.186Z,100517.97
2023-01-13T01:13:53.748Z,100525.97
2023-01-13T01:16:22.343Z,100514.94
2023-01-13T01:18:51.285Z,100508.19
2023-01-13T01:21:19.112Z,100511.91
2023-01-13T01:23:45.853Z,100506.00
2023-01-13T01:26:26.299Z,100494.63
2023-01-13T01:28:53.717Z,100499.09
2023-01-13T01:31:24.245Z,100492.69
2023-01-13T01:33:51.892Z,100507.16
2023-01-13T01:36:20.277Z,100503.53
2023-01-13T01:38:47.991Z,100495.47
2023-01-13T01:41:18.184Z,100494.81
2023-01-13T01:43:47.442Z,100487.03
2023-01-13T01:46:14.052Z,100486.75
2023-01-13T01:48:42.703Z,100490.25
2023-01-13T01:51:13.527Z,100486.41
2023-01-13T01:53:40.708Z,100482.66
2023-01-13T01:56:08.706Z,100475.41
2023-01-13T01:58:41.215Z,100463.53
2023-01-13T02:01:12.140Z,100466.69
2023-01-13T02:03:43.819Z,100468.16
2023-01-13T02:06:12.008Z,100466.00
2023-01-13T02:08:40.359Z,100462.66
2023-01-13T02:11:07.233Z,100461.88
2023-01-13T02:13:33.983Z,100464.34
2023-01-13T02:16:13.588Z,100463.38
2023-01-13T02:18:46.476Z,100469.75
2023-01-13T02:21:13.113Z,100468.72
2023-01-13T02:24:08.272Z,100464.72
2023-01-13T02:27:13.260Z,100460.19
2023-01-13T02:29:48.899Z,100454.25
2023-01-13T02:32:30.040Z,100459.44
2023-01-13T02:35:21.574Z,100456.66
2023-01-13T02:37:50.279Z,100457.69
2023-01-13T02:40:27.426Z,100454.16
2023-01-13T02:43:19.321Z,100460.44
2023-01-13T02:45:56.011Z,100451.66
2023-01-13T02:48:24.594Z,100451.81
2023-01-13T02:51:02.203Z,100447.66
2023-01-13T02:53:37.618Z,100438.19
2023-01-13T02:56:06.595Z,100446.69
2023-01-13T02:58:37.430Z,100444.78
2023-01-13T03:01:04.280Z,100438.97
2023-01-13T03:03:30.900Z,100443.47
2023-01-13T03:06:09.526Z,100439.94
2023-01-13T03:08:48.073Z,100436.56
2023-01-13T03:11:16.609Z,100434.75
2023-01-13T03:13:46.332Z,100429.78
2023-01-13T03:16:27.344Z,100427.84
2023-01-13T03:19:21.475Z,100422.84
2023-01-13T03:22:26.203Z,100425.47
2023-01-13T03:25:03.247Z,100427.16
2023-01-13T03:27:40.875Z,100425.19
2023-01-13T03:30:15.485Z,100433.56
2023-01-13T03:32:51.363Z,100421.56
2023-01-13T03:35:22.300Z,100428.50
2023-01-13T03:38:00.281Z,100417.22
2023-01-13T03:40:32.774Z,100420.38
2023-01-13T03:43:27.867Z,100410.78
2023-01-13T03:45:59.969Z,100412.09
2023-01-13T03:48:28.720Z,100421.75
2023-01-13T03:51:03.932Z,100412.47
2023-01-13T03:53:36.350Z,100405.00
2023-01-13T03:56:12.870Z,100406.94
2023-01-13T03:58:44.311Z,100408.94
2023-01-13T04:01:18.401Z,100405.25
2023-01-13T04:03:52.376Z,100409.41
2023-01-13T04:06:44.391Z,100405.13
2023-01-13T04:09:20.012Z,100406.91
2023-01-13T04:11:56.356Z,100413.03
2023-01-13T04:14:26.037Z,100412.50
2023-01-13T04:16:52.660Z,100410.88
2023-01-13T04:19:19.354Z,100420.91
2023-01-13T04:21:46.054Z,100416.75
2023-01-13T04:24:12.758Z,100419.44
2023-01-13T04:26:39.506Z,100412.56
2023-01-13T04:29:06.154Z,100414.00
2023-01-13T04:31:32.858Z,100418.25
2023-01-13T04:33:59.451Z,100418.22
2023-01-13T04:36:26.070Z,100423.09
2023-01-13T04:38:55.712Z,100419.69
2023-01-13T04:41:22.604Z,100425.59
2023-01-13T04:43:49.323Z,100422.63
2023-01-13T04:46:15.975Z,100427.84
2023-01-13T04:48:42.664Z,100415.00
2023-01-13T04:51:09.325Z,100421.09
2023-01-13T04:53:35.928Z,100418.44
2023-01-13T04:56:02.564Z,100424.94
2023-01-13T04:58:29.218Z,100419.47
2023-01-13T05:00:55.833Z,100418.25
2023-01-13T05:03:22.496Z,100416.50
2023-01-13T05:05:52.026Z,100416.81
2023-01-13T05:08:18.646Z,100416.03
2023-01-13T05:10:45.242Z,100428.56
2023-01-13T05:13:11.900Z,100425.94
2023-01-13T05:15:41.008Z,100425.94
2023-01-13T05:18:07.905Z,100432.84
2023-01-13T05:20:34.569Z,100431.34
2023-01-13T05:23:01.232Z,100428.97
2023-01-13T05:25:28.085Z,100437.56
2023-01-13T05:27:59.816Z,100436.84
2023-01-13T05:30:32.279Z,100436.09
2023-01-13T05:32:59.135Z,100439.59
2023-01-13T05:35:26.261Z,100436.56
2023-01-13T05:37:54.612Z,100433.75
2023-01-13T05:40:22.025Z,100449.34
2023-01-13T05:42:48.654Z,100443.38
2023-01-13T05:45:15.292Z,100449.28
2023-01-13T05:47:41.910Z,100444.19
2023-01-13T05:50:09.898Z,100457.13
2023-01-13T05:52:36.504Z,100448.56
2023-01-13T05:55:03.371Z,100445.78
2023-01-13T05:57:30.109Z,100449.44
2023-01-13T05:59:58.927Z,100446.59
2023-01-13T06:02:25.538Z,100446.78
2023-01-13T06:04:52.630Z,100453.56
2023-01-13T06:07:19.273Z,100450.22
2023-01-13T06:09:46.665Z,100447.22
2023-01-13T06:12:14.379Z,100453.06
2023-01-13T06:14:40.999Z,100451.34
2023-01-13T06:17:09.131Z,100452.78
2023-01-13T06:19:35.967Z,100453.81
2023-01-13T06:22:08.849Z,100454.69
2023-01-13T06:24:36.313Z,100461.75
2023-01-13T06:27:05.209Z,100454.75
2023-01-13T06:29:31.810Z,100449.59
2023-01-13T06:32:01.028Z,100446.06
2023-01-13T06:34:27.808Z,100454.34
2023-01-13T06:36:55.870Z,100443.47
2023-01-13T06:39:25.830Z,100447.09
2023-01-13T06:41:54.505Z,100454.22
2023-01-13T06:44:23.549Z,100460.31
2023-01-13T06:46:51.635Z,100463.88
2023-01-13T06:49:20.615Z,100464.75
2023-01-13T06:51:48.124Z,100469.91
2023-01-13T06:54:14.724Z,100459.44
2023-01-13T06:56:41.418Z,100457.88
2023-01-13T06:59:10.351Z,100458.69
2023-01-13T07:01:37.051Z,100457.00
2023-01-13T07:04:03.999Z,100451.84
2023-01-13T07:06:30.639Z,100454.97
2023-01-13T07:08:57.236Z,100460.09
2023-01-13T07:11:24.306Z,100458.06
2023-01-13T07:13:50.896Z,100464.94
2023-01-13T07:16:17.521Z,100459.97
2023-01-13T07:18:44.170Z,100458.63
2023-01-13T07:21:12.281Z,100464.19
2023-01-13T07:23:41.022Z,100465.09
2023-01-13T07:26:10.209Z,100467.09
2023-01-13T07:28:38.535Z,100467.78
2023-01-13T07:31:06.392Z,100467.97
2023-01-13T07:33:33.105Z,100465.38
2023-01-13T07:36:04.838Z,100462.94
2023-01-13T07:38:33.260Z,100466.81
2023-01-13T07:41:00.892Z,100471.28
2023-01-13T07:43:27.488Z,100482.41
2023-01-13T07:45:58.390Z,100481.50
2023-01-13T07:48:29.143Z,100482.44
2023-01-13T07:50:56.117Z,100482.06
2023-01-13T07:53:23.585Z,100482.66
2023-01-13T07:55:50.230Z,100489.38
2023-01-13T07:58:16.860Z,100491.09
2023-01-13T08:00:43.588Z,100483.78
2023-01-13T08:03:10.291Z,100489.81
2023-01-13T08:05:37.007Z,100496.31
2023-01-13T08:08:03.661Z,100501.31
2023-01-13T08:10:30.339Z,100502.97
2023-01-13T08:12:57.313Z,100508.88
2023-01-13T08:15:23.980Z,100509.97
2023-01-13T08:17:50.593Z,100517.63
2023-01-13T08:20:17.319Z,100511.59
2023-01-13T08:22:43.963Z,100511.97
2023-01-13T08:25:10.615Z,100514.97
2023-01-13T08:27:37.227Z,100525.78
2023-01-13T08:30:04.890Z,100521.72
2023-01-13T08:32:31.513Z,100524.59
2023-01-13T08:34:58.118Z,100513.53
2023-01-13T08:37:24.739Z,100518.78
2023-01-13T08:39:51.462Z,100518.84
2023-01-13T08:42:18.090Z,100521.00
2023-01-13T08:44:44.668Z,100525.63
2023-01-13T08:47:11.277Z,100521.59
2023-01-13T08:49:37.903Z,100528.66
2023-01-13T08:52:04.500Z,100528.91
2023-01-13T08:54:31.236Z,100533.34
2023-01-13T08:56:57.982Z,100538.53
2023-01-13T08:59:24.794Z,100541.34
2023-01-13T09:01:51.447Z,100549.81
2023-01-13T09:04:21.332Z,100547.13
2023-01-13T09:06:48.616Z,100555.78
2023-01-13T09:09:15.701Z,100546.34
2023-01-13T09:11:45.692Z,100543.88
2023-01-13T09:14:12.276Z,100541.34
2023-01-13T09:16:38.902Z,100540.41
2023-01-13T09:19:05.615Z,100533.69
2023-01-13T09:21:32.215Z,100541.38
2023-01-13T09:23:58.904Z,100538.75
2023-01-13T09:26:25.491Z,100529.91
2023-01-13T09:28:52.100Z,100529.78
2023-01-13T09:31:18.777Z,100525.41
2023-01-13T09:33:45.410Z,100525.09
2023-01-13T09:36:12.027Z,100531.09
2023-01-13T09:38:38.766Z,100527.59
2023-01-13T09:41:05.665Z,100518.31
2023-01-13T09:43:39.131Z,100525.66
2023-01-13T09:46:14.582Z,100526.31
2023-01-13T09:48:41.303Z,100531.00
2023-01-13T09:51:17.645Z,100519.78
2023-01-13T09:53:50.836Z,100517.94
2023-01-13T09:56:17.485Z,100526.66
2023-01-13T09:58:47.150Z,100523.50
2023-01-13T10:01:26.897Z,100519.28
2023-01-13T10:03:54.050Z,100517.66
2023-01-13T10:06:37.071Z,100528.88
2023-01-13T10:09:04.125Z,100530.38
2023-01-13T10:11:39.563Z,100526.00
2023-01-13T10:14:35.419Z,100515.16
2023-01-13T10:17:13.938Z,100513.69
2023-01-13T10:20:00.015Z,100509.06
2023-01-13T10:22:58.814Z,100507.53
2023-01-13T10:26:10.188Z,100501.84
2023-01-13T10:28:36.821Z,100510.34
2023-01-13T10:31:11.067Z,100515.63
2023-01-13T10:33:37.808Z,100505.31
2023-01-13T10:36:17.501Z,100509.78
2023-01-13T10:38:46.598Z,100511.34
2023-01-13T10:41:13.144Z,100511.84
2023-01-13T10:43:39.807Z,100512.69
2023-01-13T10:46:12.193Z,100512.16
2023-01-13T10:48:43.988Z,100505.22
2023-01-13T10:51:10.651Z,100501.19
2023-01-13T10:54:03.731Z,100494.00
2023-01-13T10:56:33.289Z,100489.19
2023-01-13T10:59:23.736Z,100486.66
2023-01-13T11:01:59.815Z,100479.06
2023-01-13T11:04:34.562Z,100470.31
2023-01-13T11:07:04.255Z,100475.47
2023-01-13T11:09:32.328Z,100458.56
2023-01-13T11:11:59.854Z,100454.13
2023-01-13T11:14:50.386Z,100449.81
2023-01-13T11:17:36.288Z,100452.41
2023-01-13T11:20:14.917Z,100453.44
2023-01-13T11:22:55.003Z,100462.88
2023-01-13T11:25:25.242Z,100455.06
2023-01-13T11:27:59.272Z,100446.00
2023-01-13T11:30:34.585Z,100438.97
2023-01-13T11:33:10.319Z,100436.41
2023-01-13T11:35:52.637Z,100428.50
2023-01-13T11:38:40.736Z,100418.16
2023-01-13T11:41:50.703Z,100418.44
2023-01-13T11:44:33.824Z,100415.09
2023-01-13T11:47:00.567Z,100419.72
2023-01-13T11:49:29.930Z,100418.97
2023-01-13T11:51:59.476Z,100420.97
2023-01-13T11:54:53.454Z,100413.63
2023-01-13T11:57:53.326Z,100412.06
2023-01-13T12:00:38.556Z,100418.25
2023-01-13T12:03:27.161Z,100412.19
2023-01-13T12:06:05.499Z,100401.59
2023-01-13T12:08:43.875Z,100390.41
2023-01-13T12:11:25.697Z,100384.81
2023-01-13T12:13:52.226Z,100368.56
2023-01-13T12:16:25.976Z,100370.41
2023-01-13T12:18:58.297Z,100365.38
2023-01-13T12:21:29.189Z,100356.44
2023-01-13T12:24:06.322Z,100353.72
2023-01-13T12:26:40.790Z,100349.47
2023-01-13T12:29:18.932Z,100342.75
2023-01-13T12:31:48.599Z,100342.97
2023-01-13T12:34:50.402Z,100338.34
2023-01-13T12:37:33.208Z,100334.00
2023-01-13T12:41:04.318Z,100332.34
2023-01-13T12:43:32.549Z,100330.63
2023-01-13T12:46:20.045Z,100342.03
2023-01-13T12:48:52.206Z,100349.19
2023-01-13T12:51:28.888Z,100357.72
2023-01-13T12:53:56.421Z,100356.06
2023-01-13T12:56:28.750Z,100357.63
2023-01-13T12:59:16.635Z,100355.91
2023-01-13T13:01:45.624Z,100353.41
2023-01-13T13:04:14.973Z,100345.44
2023-01-13T13:06:45.873Z,100348.72
2023-01-13T13:09:32.623Z,100353.31
2023-01-13T13:12:30.941Z,100345.34
2023-01-13T13:14:57.573Z,100350.78
2023-01-13T13:17:29.911Z,100347.97
2023-01-13T13:19:58.748Z,100344.63
2023-01-13T13:22:28.102Z,100354.34
2023-01-13T13:24:54.817Z,100367.38
2023-01-13T13:27:42.741Z,100369.16
2023-01-13T13:30:33.931Z,100365.44
2023-01-13T13:33:25.048Z,100365.72
2023-01-13T13:35:51.680Z,100370.88
2023-01-13T13:38:33.601Z,100366.63
2023-01-13T13:41:00.457Z,100364.06
2023-01-13T13:43:29.930Z,100360.50
2023-01-13T13:45:57.522Z,100364.00
2023-01-13T13:48:29.658Z,100366.63
2023-01-13T13:51:01.381Z,100362.22
2023-01-13T13:53:36.861Z,100355.25
2023-01-13T13:56:14.859Z,100362.28
2023-01-13T13:58:41.525Z,100364.81
2023-01-13T14:01:22.372Z,100357.03
2023-01-13T14:04:04.924Z,100357.97
2023-01-13T14:06:31.552Z,100368.38
2023-01-13T14:08:58.872Z,100380.59
2023-01-13T14:11:30.961Z,100379.72
2023-01-13T14:14:06.291Z,100391.06
2023-01-13T14:16:36.188Z,100387.56
2023-01-13T14:19:03.241Z,100381.47
2023-01-13T14:21:30.536Z,100379.63
2023-01-13T14:24:14.816Z,100391.84
2023-01-13T14:26:41.776Z,100395.34
2023-01-13T14:29:18.135Z,100386.63
2023-01-13T14:31:45.464Z,100395.16
2023-01-13T14:34:31.682Z,100389.03
2023-01-13T14:36:59.836Z,100380.50
2023-01-13T14:39:37.213Z,100372.72
2023-01-13T14:42:05.206Z,100372.72
2023-01-13T14:44:36.350Z,100386.66
2023-01-13T14:47:27.085Z,100391.03
2023-01-13T14:50:01.493Z,100388.41
2023-01-13T14:52:31.948Z,100397.13
2023-01-13T14:55:07.742Z,100399.56
2023-01-13T14:57:36.022Z,100395.34
2023-01-13T15:00:23.375Z,100390.94
2023-01-13T15:02:52.753Z,100394.50
2023-01-13T15:05:19.316Z,100386.69
2023-01-13T15:08:12.187Z,100395.34
2023-01-13T15:10:50.426Z,100391.84
2023-01-13T15:13:29.097Z,100386.69
2023-01-13T15:15:58.958Z,100398.88
2023-01-13T15:18:25.936Z,100390.19
2023-01-13T15:20:52.650Z,100391.00
2023-01-13T15:23:19.814Z,100386.72
2023-01-13T15:25:47.393Z,100387.53
2023-01-13T15:28:20.588Z,100386.72
2023-01-13T15:30:48.315Z,100395.41
2023-01-13T15:33:16.025Z,100392.78
2023-01-13T15:35:46.083Z,100386.66
2023-01-13T15:38:17.897Z,100389.25
2023-01-13T15:40:45.968Z,100387.47
2023-01-13T15:43:18.145Z,100385.75
2023-01-13T15:45:46.624Z,100379.66
2023-01-13T15:48:13.288Z,100386.72
2023-01-13T15:50:39.886Z,100382.31
2023-01-13T15:53:06.710Z,100393.66
2023-01-13T15:55:38.737Z,100391.03
2023-01-13T15:58:05.782Z,100398.03
2023-01-13T16:00:32.862Z,100391.84
2023-01-13T16:02:59.544Z,100395.22
2023-01-13T16:05:26.335Z,100391.84
2023-01-13T16:07:53.069Z,100397.84
2023-01-13T16:10:23.351Z,100395.16
2023-01-13T16:12:50.557Z,100391.81
2023-01-13T16:15:18.649Z,100382.13
2023-01-13T16:17:46.619Z,100385.47
2023-01-13T16:20:17.690Z,100394.28
2023-01-13T16:22:44.783Z,100395.31
2023-01-13T16:25:23.665Z,100397.09
2023-01-13T16:27:51.075Z,100392.75
2023-01-13T16:30:27.028Z,100405.81
2023-01-13T16:32:54.128Z,100404.88
2023-01-13T16:35:22.175Z,100395.38
2023-01-13T16:37:49.420Z,100389.28
2023-01-13T16:40:25.125Z,100390.00
2023-01-13T16:42:52.114Z,100391.03
2023-01-13T16:45:19.565Z,100387.53
2023-01-13T16:47:46.378Z,100390.16
2023-01-13T16:50:35.174Z,100391.06
2023-01-13T16:53:02.845Z,100394.53
2023-01-13T16:55:29.565Z,100383.22
2023-01-13T16:57:56.173Z,100385.81
2023-01-13T17:00:23.003Z,100381.47
2023-01-13T17:02:49.660Z,100384.09
2023-01-13T17:05:16.460Z,100382.38
2023-01-13T17:07:45.321Z,100385.84
2023-01-13T17:10:15.288Z,100387.56
2023-01-13T17:12:42.057Z,100392.78
2023-01-13T17:15:11.877Z,100392.81
2023-01-13T17:17:39.276Z,100384.94
2023-01-13T17:20:06.596Z,100386.63
2023-01-13T17:22:33.189Z,100388.41
2023-01-13T17:24:59.785Z,100379.63
2023-01-13T17:27:26.515Z,100370.97
2023-01-13T17:29:53.232Z,100377.06
2023-01-13T17:32:21.197Z,100377.06
2023-01-13T17:34:47.950Z,100377.97
2023-01-13T17:37:14.918Z,100377.84
2023-01-13T17:39:45.173Z,100377.97
2023-01-13T17:42:12.195Z,100377.09
2023-01-13T17:44:39.388Z,100382.31
2023-01-13T17:47:06.185Z,100390.94
2023-01-13T17:49:33.233Z,100382.31
2023-01-13T17:51:59.881Z,100390.09
2023-01-13T17:54:26.574Z,100391.84
2023-01-13T17:56:53.285Z,100394.44
2023-01-13T17:59:20.082Z,100396.22
2023-01-13T18:01:47.032Z,100395.25
2023-01-13T18:04:15.786Z,100402.19
2023-01-13T18:06:43.108Z,100399.63
2023-01-13T18:09:09.893Z,100404.81
2023-01-13T18:11:36.584Z,100398.75
2023-01-13T18:14:03.456Z,100408.34
2023-01-13T18:16:31.225Z,100400.50
2023-01-13T18:18:58.647Z,100404.78
2023-01-13T18:21:26.931Z,100415.94
2023-01-13T18:23:53.503Z,100419.38
2023-01-13T18:26:20.719Z,100431.56
2023-01-13T18:28:47.312Z,100433.41
2023-01-13T18:31:13.977Z,100431.59
2023-01-13T18:33:40.598Z,100425.66
2023-01-13T18:36:08.052Z,100434.31
2023-01-13T18:38:34.654Z,100433.38
2023-01-13T18:41:01.242Z,100428.13
2023-01-13T18:43:27.900Z,100423.75
2023-01-13T18:45:54.524Z,100428.06
2023-01-13T18:48:21.168Z,100432.47
2023-01-13T18:50:47.813Z,100415.88
2023-01-13T18:53:14.420Z,100420.97
2023-01-13T18:55:41.031Z,100422.06
2023-01-13T18:58:07.657Z,100423.91
2023-01-13T19:00:34.326Z,100434.34
2023-01-13T19:05:33.860Z,100426.50
2023-01-13T19:08:00.465Z,100430.81
2023-01-13T19:10:28.221Z,100436.13
2023-01-13T19:12:54.807Z,100441.34
2023-01-13T19:15:21.405Z,100447.28
2023-01-13T19:17:48.301Z,100436.69
2023-01-13T19:20:15.227Z,100435.91
2023-01-13T19:22:41.904Z,100432.66
2023-01-13T19:25:08.548Z,100438.63
2023-01-13T19:27:35.160Z,100440.44
2023-01-13T19:30:02.948Z,100448.41
2023-01-13T19:32:34.821Z,100456.09
2023-01-13T19:35:01.413Z,100463.91
2023-01-13T19:37:28.468Z,100460.44
2023-01-13T19:39:55.065Z,100452.66
2023-01-13T19:42:21.829Z,100463.06
2023-01-13T19:44:48.425Z,100462.25
2023-01-13T19:47:15.056Z,100465.66
2023-01-13T19:49:41.799Z,100472.53
2023-01-13T19:52:08.534Z,100470.84
2023-01-13T19:54:35.372Z,100478.72
2023-01-13T19:57:02.272Z,100488.34
2023-01-13T19:59:28.880Z,100484.09
2023-01-13T20:01:57.091Z,100487.44
2023-01-13T20:04:24.591Z,100485.72
2023-01-13T20:06:51.189Z,100481.38
2023-01-13T20:09:17.808Z,100503.06
2023-01-13T20:11:44.391Z,100521.41
2023-01-13T20:14:11.408Z,100525.19
2023-01-13T20:16:37.988Z,100515.63
2023-01-13T20:19:04.592Z,100534.03
2023-01-13T20:21:31.377Z,100533.84
2023-01-13T20:31:42.140Z,100513.31
2023-01-13T20:34:08.908Z,100504.56
2023-01-13T20:36:35.970Z,100507.19
2023-01-13T20:39:05.529Z,100508.91
2023-01-13T20:41:32.747Z,100504.59
2023-01-13T20:43:59.339Z,100506.19
2023-01-13T20:46:26.007Z,100492.38
2023-01-13T20:48:52.608Z,100495.91
2023-01-13T20:51:19.295Z,100499.38
2023-01-13T20:57:09.811Z,100495.09
2023-01-13T20:59:37.761Z,100490.03
2023-01-13T21:02:06.692Z,100483.19
2023-01-13T21:04:34.025Z,100494.44
2023-01-13T21:07:00.665Z,100492.72
2023-01-13T21:09:27.370Z,100497.97
2023-01-13T21:11:54.516Z,100511.94
2023-01-13T21:14:25.554Z,100506.59
2023-01-13T21:16:52.177Z,100502.34
2023-01-13T21:19:20.063Z,100510.22
2023-01-13T21:21:46.661Z,100508.34
2023-01-13T21:24:13.354Z,100500.56
2023-01-13T21:26:39.957Z,100492.63
2023-01-13T21:29:06.595Z,100492.69
2023-01-13T21:31:33.364Z,100487.53
2023-01-13T21:33:59.975Z,100473.56
2023-01-13T21:36:27.866Z,100474.41
2023-01-13T21:38:57.149Z,100469.19
2023-01-13T21:41:24.751Z,100462.25
2023-01-13T21:43:51.337Z,100477.09
2023-01-13T21:46:19.153Z,100481.47
2023-01-13T21:48:45.884Z,100472.75
2023-01-13T21:51:12.480Z,100469.25
2023-01-13T21:53:39.118Z,100473.66
2023-01-13T21:56:05.914Z,100473.72
2023-01-13T21:58:32.503Z,100472.81
2023-01-13T22:01:01.553Z,100488.47
2023-01-13T22:03:28.253Z,100489.31
2023-01-13T22:05:55.256Z,100495.31
2023-01-13T22:08:21.852Z,100487.31
2023-01-13T22:10:48.453Z,100466.28
2023-01-13T22:13:22.041Z,100462.78
2023-01-13T22:15:48.811Z,100468.28
2023-01-13T22:18:15.433Z,100475.81
2023-01-13T22:20:42.023Z,100475.19
2023-01-13T22:23:08.666Z,100477.97
2023-01-13T22:25:35.305Z,100482.34
2023-01-13T22:28:02.033Z,100489.25
2023-01-13T22:30:28.709Z,100504.94
2023-01-13T22:32:55.295Z,100527.50
2023-01-13T22:35:21.897Z,100538.63
2023-01-13T22:37:48.478Z,100548.06
2023-01-13T22:40:15.549Z,100553.25
2023-01-13T22:42:43.198Z,100561.19
2023-01-13T22:45:12.011Z,100550.84
2023-01-13T22:47:38.998Z,100544.59
2023-01-13T22:50:07.157Z,100564.66
2023-01-13T22:52:34.688Z,100573.06
2023-01-13T22:55:01.313Z,100571.41
2023-01-13T22:57:36.050Z,100566.22
2023-01-13T23:00:06.007Z,100575.94
2023-01-13T23:02:32.609Z,100579.44
2023-01-13T23:04:59.184Z,100579.31
2023-01-13T23:07:25.798Z,100568.72
2023-01-13T23:09:52.451Z,100569.56
2023-01-13T23:12:19.055Z,100573.13
2023-01-13T23:14:45.699Z,100567.97
2023-01-13T23:17:12.398Z,100565.22
2023-01-13T23:19:38.986Z,100559.06
2023-01-13T23:22:05.659Z,100555.72
2023-01-13T23:24:32.334Z,100542.59
2023-01-13T23:26:58.963Z,100527.28
2023-01-13T23:29:25.692Z,100517.97
2023-01-13T23:31:52.275Z,100505.84
2023-01-13T23:34:18.891Z,100499.72
2023-01-13T23:36:45.535Z,100496.31
2023-01-13T23:39:12.145Z,100496.19
2023-01-13T23:41:38.747Z,100498.88
2023-01-13T23:44:05.398Z,100486.38
2023-01-13T23:46:32.045Z,100480.50
2023-01-13T23:48:58.691Z,100476.19
2023-01-13T23:51:26.103Z,100479.72
2023-01-13T23:53:52.840Z,100485.84
2023-01-13T23:56:22.847Z,100491.00
2023-01-13T23:58:50.661Z,100491.88
